Date,TemperatureHighF,TemperatureAvgF,TemperatureLowF,DewpointHighF,DewpointAvgF,DewpointLowF,HumidityHigh,HumidityAvg,HumidityLow,PressureMaxIn,PressureMinIn,WindSpeedMaxMPH,WindSpeedAvgMPH,GustSpeedMaxMPH,PrecipitationSumIn
2013-6-1,93.5,82.4,74.5,68.0,66.2,63.0,76,59,39,29.97,29.85,8,2,12,0.00
2013-6-2,91.0,81.0,71.9,70.0,66.5,62.0,83,63,45,29.87,29.72,10,2,12,0.08
2013-6-3,79.2,72.4,69.5,69.0,65.9,47.0,95,81,44,29.82,29.75,7,2,10,0.25
2013-6-4,77.7,68.4,58.9,49.0,41.4,37.0,54,39,26,30.06,29.83,9,3,13,0.25
2013-6-5,76.3,68.0,59.8,56.0,43.2,35.0,82,42,30,30.16,30.05,6,2,11,0.00
2013-6-6,73.4,65.4,59.9,59.0,56.1,47.0,91,74,41,30.10,29.97,6,2,12,0.11
2013-6-7,64.2,61.7,59.0,62.0,60.0,58.0,97,94,89,29.97,29.58,10,3,16,3.09
2013-6-8,78.4,68.7,57.2,63.0,60.0,56.0,98,76,57,29.99,29.52,10,2,15,4.31
2013-6-9,83.6,74.3,65.3,63.0,58.6,54.0,80,60,39,30.12,30.00,8,1,10,0.00
2013-6-10,71.9,67.3,62.8,66.0,63.6,62.0,97,88,78,30.11,29.79,11,2,17,0.92
2013-6-11,81.8,73.7,63.5,68.0,64.4,59.0,98,74,52,29.78,29.56,11,4,23,0.02
2013-6-12,77.8,72.4,66.7,61.0,53.5,51.0,73,53,40,29.80,29.66,14,4,22,0.02
2013-6-13,70.6,65.4,56.9,62.0,57.6,52.0,94,77,52,29.79,29.41,17,3,22,0.75
2013-6-14,75.5,63.3,54.2,60.0,53.0,51.0,94,71,47,29.84,29.46,9,2,20,0.04
2013-6-15,82.9,73.8,64.3,57.0,52.1,46.0,73,49,29,29.95,29.83,7,2,14,0.04
2013-6-16,83.2,75.6,67.1,65.0,56.4,49.0,73,52,34,29.94,29.72,11,2,20,0.00
2013-6-17,87.6,77.5,69.8,66.0,64.4,60.0,84,66,42,29.86,29.79,14,2,19,0.04
2013-6-18,86.1,73.0,66.2,69.0,64.8,63.0,91,77,47,29.85,29.77,4,1,12,0.24
2013-6-19,78.8,69.9,61.2,63.0,52.1,42.0,93,58,28,30.11,29.83,8,3,12,0.26
2013-6-20,81.7,71.7,63.7,58.0,53.3,50.0,64,53,39,30.22,30.12,10,2,11,0.00
2013-6-21,84.8,73.3,65.0,57.0,51.6,45.0,60,47,36,30.25,30.19,7,2,9,0.00
2013-6-22,85.6,74.2,65.8,63.0,55.0,47.0,70,52,37,30.22,30.09,6,2,10,0.00
2013-6-23,89.9,78.3,69.9,72.0,65.7,57.0,85,66,48,30.14,30.01,6,2,15,0.00
2013-6-24,95.0,82.7,74.5,72.0,68.2,60.0,89,65,31,30.03,29.90,6,2,14,0.00
2013-6-25,93.7,83.2,74.0,70.0,66.7,63.0,75,59,39,29.95,29.75,10,3,16,0.00
2013-6-26,88.9,81.3,75.1,71.0,66.9,64.0,79,63,44,29.80,29.72,10,2,12,0.01
2013-6-27,87.6,79.7,74.0,72.0,70.2,68.0,93,73,56,29.77,29.52,7,2,12,0.14
2013-6-28,89.0,79.4,74.2,72.0,69.1,64.0,91,72,50,29.52,29.43,7,3,16,0.01
2013-6-29,87.6,77.9,71.6,72.0,68.1,64.0,86,73,52,29.65,29.44,8,2,10,0.01
2013-6-30,88.0,77.2,72.4,74.0,71.1,69.0,91,82,60,29.87,29.65,5,1,10,0.00